sensor_id;sensor_type;location;lat;lon;timestamp;P1;durP1;ratioP1;P2;durP2;ratioP2
11539;SDS011;5826;54.756;9.192;2023-02-15T00:01:33;39.10;;;20.93;;
11539;SDS011;5826;54.756;9.192;2023-02-15T00:03:59;40.13;;;21.37;;
11539;SDS011;5826;54.756;9.192;2023-02-15T00:06:25;39.67;;;22.10;;
11539;SDS011;5826;54.756;9.192;2023-02-15T00:08:51;39.67;;;22.23;;
11539;SDS011;5826;54.756;9.192;2023-02-15T00:11:17;38.17;;;21.67;;
11539;SDS011;5826;54.756;9.192;2023-02-15T00:14:02;37.33;;;18.83;;
11539;SDS011;5826;54.756;9.192;2023-02-15T00:16:28;40.23;;;20.83;;
11539;SDS011;5826;54.756;9.192;2023-02-15T00:18:54;36.10;;;20.30;;
11539;SDS011;5826;54.756;9.192;2023-02-15T00:21:20;38.33;;;21.70;;
11539;SDS011;5826;54.756;9.192;2023-02-15T00:23:45;37.17;;;19.63;;
11539;SDS011;5826;54.756;9.192;2023-02-15T00:26:11;36.03;;;19.00;;
11539;SDS011;5826;54.756;9.192;2023-02-15T00:28:37;36.00;;;20.10;;
11539;SDS011;5826;54.756;9.192;2023-02-15T00:33:33;38.93;;;20.23;;
11539;SDS011;5826;54.756;9.192;2023-02-15T00:35:59;41.07;;;19.53;;
11539;SDS011;5826;54.756;9.192;2023-02-15T00:38:26;35.53;;;19.77;;
11539;SDS011;5826;54.756;9.192;2023-02-15T00:40:53;39.03;;;21.80;;
11539;SDS011;5826;54.756;9.192;2023-02-15T00:43:19;37.40;;;19.30;;
11539;SDS011;5826;54.756;9.192;2023-02-15T00:45:45;34.43;;;19.50;;
11539;SDS011;5826;54.756;9.192;2023-02-15T00:48:11;37.63;;;19.70;;
11539;SDS011;5826;54.756;9.192;2023-02-15T00:50:36;37.40;;;21.43;;
11539;SDS011;5826;54.756;9.192;2023-02-15T00:53:02;41.87;;;20.23;;
11539;SDS011;5826;54.756;9.192;2023-02-15T00:55:27;39.53;;;21.10;;
11539;SDS011;5826;54.756;9.192;2023-02-15T00:57:53;39.00;;;20.10;;
11539;SDS011;5826;54.756;9.192;2023-02-15T01:00:18;37.67;;;20.37;;
11539;SDS011;5826;54.756;9.192;2023-02-15T01:02:44;38.93;;;22.03;;
11539;SDS011;5826;54.756;9.192;2023-02-15T01:05:09;36.27;;;20.80;;
11539;SDS011;5826;54.756;9.192;2023-02-15T01:07:35;38.37;;;21.37;;
11539;SDS011;5826;54.756;9.192;2023-02-15T01:10:00;39.70;;;20.70;;
11539;SDS011;5826;54.756;9.192;2023-02-15T01:12:26;34.67;;;18.93;;
11539;SDS011;5826;54.756;9.192;2023-02-15T01:14:51;40.33;;;20.93;;
11539;SDS011;5826;54.756;9.192;2023-02-15T01:17:17;39.53;;;19.77;;
11539;SDS011;5826;54.756;9.192;2023-02-15T01:19:42;37.17;;;19.67;;
11539;SDS011;5826;54.756;9.192;2023-02-15T01:22:08;37.53;;;21.40;;
11539;SDS011;5826;54.756;9.192;2023-02-15T01:24:33;37.47;;;21.10;;
11539;SDS011;5826;54.756;9.192;2023-02-15T01:26:59;37.47;;;19.70;;
11539;SDS011;5826;54.756;9.192;2023-02-15T01:29:24;38.57;;;19.97;;
11539;SDS011;5826;54.756;9.192;2023-02-15T01:31:50;39.37;;;21.13;;
11539;SDS011;5826;54.756;9.192;2023-02-15T01:34:15;38.80;;;21.00;;
11539;SDS011;5826;54.756;9.192;2023-02-15T01:36:41;41.47;;;20.73;;
11539;SDS011;5826;54.756;9.192;2023-02-15T01:39:06;38.60;;;22.23;;
11539;SDS011;5826;54.756;9.192;2023-02-15T01:41:32;40.77;;;20.17;;
11539;SDS011;5826;54.756;9.192;2023-02-15T01:43:59;37.80;;;19.43;;
11539;SDS011;5826;54.756;9.192;2023-02-15T01:46:31;42.23;;;22.10;;
11539;SDS011;5826;54.756;9.192;2023-02-15T01:49:05;36.30;;;17.90;;
11539;SDS011;5826;54.756;9.192;2023-02-15T01:51:36;38.60;;;20.83;;
11539;SDS011;5826;54.756;9.192;2023-02-15T01:54:07;37.67;;;20.63;;
11539;SDS011;5826;54.756;9.192;2023-02-15T01:56:40;41.43;;;22.23;;
11539;SDS011;5826;54.756;9.192;2023-02-15T01:59:08;35.90;;;20.30;;
11539;SDS011;5826;54.756;9.192;2023-02-15T02:01:37;37.20;;;20.00;;
11539;SDS011;5826;54.756;9.192;2023-02-15T02:04:16;38.90;;;20.00;;
11539;SDS011;5826;54.756;9.192;2023-02-15T02:06:54;37.30;;;19.00;;
11539;SDS011;5826;54.756;9.192;2023-02-15T02:09:22;37.30;;;19.37;;
11539;SDS011;5826;54.756;9.192;2023-02-15T02:11:47;39.70;;;20.60;;
11539;SDS011;5826;54.756;9.192;2023-02-15T02:14:13;37.80;;;19.27;;
11539;SDS011;5826;54.756;9.192;2023-02-15T02:16:42;37.77;;;20.37;;
11539;SDS011;5826;54.756;9.192;2023-02-15T02:22:22;37.47;;;19.83;;
11539;SDS011;5826;54.756;9.192;2023-02-15T02:25:55;37.40;;;19.40;;
11539;SDS011;5826;54.756;9.192;2023-02-15T02:34:12;41.40;;;20.60;;
11539;SDS011;5826;54.756;9.192;2023-02-15T02:36:49;37.30;;;19.73;;
11539;SDS011;5826;54.756;9.192;2023-02-15T02:39:37;34.57;;;18.83;;
11539;SDS011;5826;54.756;9.192;2023-02-15T02:44:43;29.20;;;16.97;;
11539;SDS011;5826;54.756;9.192;2023-02-15T02:47:20;28.17;;;16.63;;
11539;SDS011;5826;54.756;9.192;2023-02-15T02:49:52;27.77;;;17.90;;
11539;SDS011;5826;54.756;9.192;2023-02-15T02:55:01;29.43;;;16.43;;
11539;SDS011;5826;54.756;9.192;2023-02-15T02:57:30;25.80;;;14.43;;
11539;SDS011;5826;54.756;9.192;2023-02-15T02:59:58;23.07;;;14.80;;
11539;SDS011;5826;54.756;9.192;2023-02-15T03:02:28;27.43;;;16.20;;
11539;SDS011;5826;54.756;9.192;2023-02-15T03:05:02;24.67;;;15.73;;
11539;SDS011;5826;54.756;9.192;2023-02-15T03:07:31;23.47;;;15.60;;
11539;SDS011;5826;54.756;9.192;2023-02-15T03:09:59;25.73;;;16.97;;
11539;SDS011;5826;54.756;9.192;2023-02-15T03:12:28;23.60;;;15.80;;
11539;SDS011;5826;54.756;9.192;2023-02-15T03:15:19;27.60;;;15.53;;
11539;SDS011;5826;54.756;9.192;2023-02-15T03:17:43;25.13;;;14.47;;
11539;SDS011;5826;54.756;9.192;2023-02-15T03:20:14;26.03;;;15.40;;
11539;SDS011;5826;54.756;9.192;2023-02-15T03:22:46;25.63;;;13.47;;
11539;SDS011;5826;54.756;9.192;2023-02-15T03:25:34;25.43;;;14.70;;
11539;SDS011;5826;54.756;9.192;2023-02-15T03:28:08;25.50;;;14.50;;
11539;SDS011;5826;54.756;9.192;2023-02-15T03:30:37;30.87;;;15.23;;
11539;SDS011;5826;54.756;9.192;2023-02-15T03:33:07;23.00;;;15.27;;
11539;SDS011;5826;54.756;9.192;2023-02-15T03:35:37;29.13;;;15.47;;
11539;SDS011;5826;54.756;9.192;2023-02-15T03:38:29;28.03;;;14.90;;
11539;SDS011;5826;54.756;9.192;2023-02-15T03:41:01;37.73;;;15.70;;
11539;SDS011;5826;54.756;9.192;2023-02-15T03:48:53;34.23;;;15.03;;
11539;SDS011;5826;54.756;9.192;2023-02-15T03:51:26;34.47;;;15.80;;
11539;SDS011;5826;54.756;9.192;2023-02-15T03:54:05;33.57;;;15.77;;
11539;SDS011;5826;54.756;9.192;2023-02-15T03:56:34;32.67;;;15.70;;
11539;SDS011;5826;54.756;9.192;2023-02-15T03:59:02;24.10;;;14.70;;
11539;SDS011;5826;54.756;9.192;2023-02-15T04:01:54;39.80;;;14.93;;
11539;SDS011;5826;54.756;9.192;2023-02-15T04:04:39;23.30;;;13.30;;
11539;SDS011;5826;54.756;9.192;2023-02-15T04:07:09;28.80;;;15.30;;
11539;SDS011;5826;54.756;9.192;2023-02-15T04:09:35;26.40;;;14.03;;
11539;SDS011;5826;54.756;9.192;2023-02-15T04:12:19;33.03;;;14.27;;
11539;SDS011;5826;54.756;9.192;2023-02-15T04:14:45;26.83;;;15.97;;
11539;SDS011;5826;54.756;9.192;2023-02-15T04:17:29;26.83;;;13.90;;
11539;SDS011;5826;54.756;9.192;2023-02-15T04:19:55;29.93;;;14.23;;
11539;SDS011;5826;54.756;9.192;2023-02-15T04:22:39;25.17;;;13.30;;
11539;SDS011;5826;54.756;9.192;2023-02-15T04:25:23;25.20;;;14.00;;
11539;SDS011;5826;54.756;9.192;2023-02-15T04:27:49;29.60;;;14.70;;
11539;SDS011;5826;54.756;9.192;2023-02-15T04:30:17;26.73;;;13.87;;
11539;SDS011;5826;54.756;9.192;2023-02-15T04:32:44;24.80;;;13.37;;
11539;SDS011;5826;54.756;9.192;2023-02-15T04:35:10;28.33;;;14.97;;
11539;SDS011;5826;54.756;9.192;2023-02-15T04:37:36;24.37;;;15.80;;
11539;SDS011;5826;54.756;9.192;2023-02-15T04:40:04;34.27;;;14.87;;
11539;SDS011;5826;54.756;9.192;2023-02-15T04:42:30;20.60;;;13.80;;
11539;SDS011;5826;54.756;9.192;2023-02-15T04:44:56;32.17;;;15.83;;
11539;SDS011;5826;54.756;9.192;2023-02-15T04:47:22;23.20;;;14.70;;
11539;SDS011;5826;54.756;9.192;2023-02-15T04:49:48;24.50;;;15.00;;
11539;SDS011;5826;54.756;9.192;2023-02-15T04:52:14;24.73;;;15.07;;
11539;SDS011;5826;54.756;9.192;2023-02-15T04:54:39;26.67;;;15.87;;
11539;SDS011;5826;54.756;9.192;2023-02-15T04:57:05;24.00;;;15.53;;
11539;SDS011;5826;54.756;9.192;2023-02-15T04:59:31;27.50;;;15.90;;
11539;SDS011;5826;54.756;9.192;2023-02-15T05:01:57;25.63;;;15.53;;
11539;SDS011;5826;54.756;9.192;2023-02-15T05:04:23;37.00;;;16.60;;
11539;SDS011;5826;54.756;9.192;2023-02-15T05:06:48;27.13;;;14.27;;
11539;SDS011;5826;54.756;9.192;2023-02-15T05:09:14;20.17;;;13.73;;
11539;SDS011;5826;54.756;9.192;2023-02-15T05:11:40;35.10;;;14.57;;
11539;SDS011;5826;54.756;9.192;2023-02-15T05:14:06;30.30;;;15.07;;
11539;SDS011;5826;54.756;9.192;2023-02-15T05:16:31;21.67;;;13.57;;
11539;SDS011;5826;54.756;9.192;2023-02-15T05:18:57;26.60;;;15.20;;
11539;SDS011;5826;54.756;9.192;2023-02-15T05:21:23;21.80;;;14.17;;
11539;SDS011;5826;54.756;9.192;2023-02-15T05:23:48;20.93;;;15.20;;
11539;SDS011;5826;54.756;9.192;2023-02-15T05:26:21;28.63;;;14.90;;
11539;SDS011;5826;54.756;9.192;2023-02-15T05:29:07;30.43;;;13.90;;
11539;SDS011;5826;54.756;9.192;2023-02-15T05:31:33;33.47;;;14.07;;
11539;SDS011;5826;54.756;9.192;2023-02-15T05:33:59;23.30;;;13.57;;
11539;SDS011;5826;54.756;9.192;2023-02-15T05:36:25;39.60;;;14.80;;
11539;SDS011;5826;54.756;9.192;2023-02-15T05:38:50;29.37;;;13.23;;
11539;SDS011;5826;54.756;9.192;2023-02-15T05:41:16;23.03;;;13.33;;
11539;SDS011;5826;54.756;9.192;2023-02-15T05:43:41;20.33;;;13.30;;
11539;SDS011;5826;54.756;9.192;2023-02-15T05:46:07;20.63;;;13.70;;
11539;SDS011;5826;54.756;9.192;2023-02-15T05:48:34;18.93;;;13.37;;
11539;SDS011;5826;54.756;9.192;2023-02-15T05:51:01;28.17;;;14.37;;
11539;SDS011;5826;54.756;9.192;2023-02-15T05:53:28;20.17;;;14.07;;
11539;SDS011;5826;54.756;9.192;2023-02-15T05:55:55;21.53;;;13.70;;
11539;SDS011;5826;54.756;9.192;2023-02-15T05:58:24;22.07;;;13.17;;
11539;SDS011;5826;54.756;9.192;2023-02-15T06:00:54;20.47;;;13.97;;
11539;SDS011;5826;54.756;9.192;2023-02-15T06:03:19;23.80;;;14.00;;
11539;SDS011;5826;54.756;9.192;2023-02-15T06:05:45;24.67;;;13.07;;
11539;SDS011;5826;54.756;9.192;2023-02-15T06:08:11;19.90;;;12.80;;
11539;SDS011;5826;54.756;9.192;2023-02-15T06:10:36;34.70;;;14.17;;
11539;SDS011;5826;54.756;9.192;2023-02-15T06:13:02;30.83;;;13.30;;
11539;SDS011;5826;54.756;9.192;2023-02-15T06:15:27;22.50;;;12.33;;
11539;SDS011;5826;54.756;9.192;2023-02-15T06:17:53;23.97;;;13.30;;
11539;SDS011;5826;54.756;9.192;2023-02-15T06:20:18;25.23;;;13.27;;
11539;SDS011;5826;54.756;9.192;2023-02-15T06:22:44;27.60;;;13.27;;
11539;SDS011;5826;54.756;9.192;2023-02-15T06:25:09;21.93;;;12.30;;
11539;SDS011;5826;54.756;9.192;2023-02-15T06:27:36;24.13;;;12.03;;
11539;SDS011;5826;54.756;9.192;2023-02-15T06:30:03;22.83;;;13.73;;
11539;SDS011;5826;54.756;9.192;2023-02-15T06:32:30;25.07;;;13.80;;
11539;SDS011;5826;54.756;9.192;2023-02-15T06:34:56;20.90;;;12.40;;
11539;SDS011;5826;54.756;9.192;2023-02-15T06:37:22;21.00;;;12.53;;
11539;SDS011;5826;54.756;9.192;2023-02-15T06:39:47;15.80;;;12.53;;
11539;SDS011;5826;54.756;9.192;2023-02-15T06:42:13;16.93;;;11.67;;
11539;SDS011;5826;54.756;9.192;2023-02-15T06:44:38;21.23;;;13.03;;
11539;SDS011;5826;54.756;9.192;2023-02-15T06:47:04;19.03;;;11.80;;
11539;SDS011;5826;54.756;9.192;2023-02-15T06:49:29;16.07;;;11.73;;
11539;SDS011;5826;54.756;9.192;2023-02-15T06:51:55;23.40;;;12.20;;
11539;SDS011;5826;54.756;9.192;2023-02-15T06:54:20;20.40;;;10.90;;
11539;SDS011;5826;54.756;9.192;2023-02-15T06:56:46;24.67;;;13.03;;
11539;SDS011;5826;54.756;9.192;2023-02-15T06:59:11;17.70;;;12.57;;
11539;SDS011;5826;54.756;9.192;2023-02-15T07:01:37;28.07;;;12.03;;
11539;SDS011;5826;54.756;9.192;2023-02-15T07:04:02;23.23;;;11.00;;
11539;SDS011;5826;54.756;9.192;2023-02-15T07:06:31;24.00;;;11.20;;
11539;SDS011;5826;54.756;9.192;2023-02-15T07:08:58;19.57;;;11.73;;
11539;SDS011;5826;54.756;9.192;2023-02-15T07:11:23;18.93;;;11.27;;
11539;SDS011;5826;54.756;9.192;2023-02-15T07:14:07;16.90;;;10.73;;
11539;SDS011;5826;54.756;9.192;2023-02-15T07:16:33;19.80;;;10.50;;
11539;SDS011;5826;54.756;9.192;2023-02-15T07:18:58;22.83;;;11.27;;
11539;SDS011;5826;54.756;9.192;2023-02-15T07:21:24;26.43;;;11.33;;
11539;SDS011;5826;54.756;9.192;2023-02-15T07:23:49;14.70;;;10.63;;
11539;SDS011;5826;54.756;9.192;2023-02-15T07:26:15;15.87;;;10.10;;
11539;SDS011;5826;54.756;9.192;2023-02-15T07:28:40;28.63;;;10.87;;
11539;SDS011;5826;54.756;9.192;2023-02-15T07:31:06;32.40;;;10.73;;
11539;SDS011;5826;54.756;9.192;2023-02-15T07:33:32;21.20;;;10.83;;
11539;SDS011;5826;54.756;9.192;2023-02-15T07:35:59;17.93;;;10.10;;
11539;SDS011;5826;54.756;9.192;2023-02-15T07:38:27;18.10;;;10.20;;
11539;SDS011;5826;54.756;9.192;2023-02-15T07:41:05;21.77;;;9.83;;
11539;SDS011;5826;54.756;9.192;2023-02-15T07:43:37;33.47;;;9.93;;
11539;SDS011;5826;54.756;9.192;2023-02-15T07:46:08;39.27;;;10.57;;
11539;SDS011;5826;54.756;9.192;2023-02-15T07:48:36;12.60;;;8.20;;
11539;SDS011;5826;54.756;9.192;2023-02-15T07:51:03;15.43;;;9.20;;
11539;SDS011;5826;54.756;9.192;2023-02-15T07:53:30;12.60;;;9.20;;
11539;SDS011;5826;54.756;9.192;2023-02-15T07:56:03;34.50;;;10.87;;
11539;SDS011;5826;54.756;9.192;2023-02-15T07:58:34;20.37;;;9.33;;
11539;SDS011;5826;54.756;9.192;2023-02-15T08:01:15;24.30;;;9.60;;
11539;SDS011;5826;54.756;9.192;2023-02-15T08:03:42;16.57;;;8.87;;
11539;SDS011;5826;54.756;9.192;2023-02-15T08:06:08;24.70;;;10.23;;
11539;SDS011;5826;54.756;9.192;2023-02-15T08:08:34;17.53;;;9.47;;
11539;SDS011;5826;54.756;9.192;2023-02-15T08:11:05;15.43;;;10.37;;
11539;SDS011;5826;54.756;9.192;2023-02-15T08:13:58;33.90;;;10.83;;
11539;SDS011;5826;54.756;9.192;2023-02-15T08:19:03;13.40;;;9.47;;
11539;SDS011;5826;54.756;9.192;2023-02-15T08:21:30;34.90;;;11.70;;
11539;SDS011;5826;54.756;9.192;2023-02-15T08:23:56;17.90;;;10.87;;
11539;SDS011;5826;54.756;9.192;2023-02-15T08:26:23;20.87;;;11.43;;
11539;SDS011;5826;54.756;9.192;2023-02-15T08:28:50;26.13;;;11.67;;
11539;SDS011;5826;54.756;9.192;2023-02-15T08:31:16;15.83;;;10.83;;
11539;SDS011;5826;54.756;9.192;2023-02-15T08:33:45;24.67;;;14.10;;
11539;SDS011;5826;54.756;9.192;2023-02-15T08:36:12;18.63;;;12.90;;
11539;SDS011;5826;54.756;9.192;2023-02-15T08:38:40;36.40;;;14.00;;
11539;SDS011;5826;54.756;9.192;2023-02-15T08:41:09;23.00;;;13.50;;
11539;SDS011;5826;54.756;9.192;2023-02-15T08:43:36;24.37;;;13.50;;
11539;SDS011;5826;54.756;9.192;2023-02-15T08:46:02;24.10;;;13.60;;
11539;SDS011;5826;54.756;9.192;2023-02-15T08:48:28;19.27;;;13.50;;
11539;SDS011;5826;54.756;9.192;2023-02-15T08:50:53;21.70;;;13.50;;
11539;SDS011;5826;54.756;9.192;2023-02-15T08:53:19;24.57;;;13.77;;
11539;SDS011;5826;54.756;9.192;2023-02-15T08:55:46;24.77;;;13.27;;
11539;SDS011;5826;54.756;9.192;2023-02-15T08:58:12;19.37;;;12.67;;
11539;SDS011;5826;54.756;9.192;2023-02-15T09:00:38;20.47;;;12.40;;
11539;SDS011;5826;54.756;9.192;2023-02-15T09:03:03;19.03;;;11.93;;
11539;SDS011;5826;54.756;9.192;2023-02-15T09:05:28;44.27;;;13.07;;
11539;SDS011;5826;54.756;9.192;2023-02-15T09:07:54;24.87;;;12.97;;
11539;SDS011;5826;54.756;9.192;2023-02-15T09:10:19;18.30;;;12.07;;
11539;SDS011;5826;54.756;9.192;2023-02-15T09:12:45;18.07;;;12.10;;
11539;SDS011;5826;54.756;9.192;2023-02-15T09:15:11;17.40;;;11.00;;
11539;SDS011;5826;54.756;9.192;2023-02-15T09:17:36;19.87;;;9.20;;
11539;SDS011;5826;54.756;9.192;2023-02-15T09:20:02;21.47;;;9.13;;
11539;SDS011;5826;54.756;9.192;2023-02-15T09:22:28;41.87;;;10.50;;
11539;SDS011;5826;54.756;9.192;2023-02-15T09:24:55;12.40;;;8.83;;
11539;SDS011;5826;54.756;9.192;2023-02-15T09:27:20;40.30;;;10.57;;
11539;SDS011;5826;54.756;9.192;2023-02-15T09:29:45;10.17;;;8.40;;
11539;SDS011;5826;54.756;9.192;2023-02-15T09:32:13;17.63;;;10.23;;
11539;SDS011;5826;54.756;9.192;2023-02-15T09:34:39;9.43;;;7.63;;
11539;SDS011;5826;54.756;9.192;2023-02-15T09:37:05;11.67;;;8.30;;
11539;SDS011;5826;54.756;9.192;2023-02-15T09:39:31;14.00;;;9.53;;
11539;SDS011;5826;54.756;9.192;2023-02-15T09:50:21;17.27;;;9.23;;
11539;SDS011;5826;54.756;9.192;2023-02-15T09:56:09;15.97;;;9.93;;
11539;SDS011;5826;54.756;9.192;2023-02-15T10:01:32;18.77;;;9.97;;
11539;SDS011;5826;54.756;9.192;2023-02-15T10:17:44;48.97;;;25.10;;
11539;SDS011;5826;54.756;9.192;2023-02-15T10:20:25;37.67;;;22.07;;
11539;SDS011;5826;54.756;9.192;2023-02-15T10:23:13;33.77;;;20.03;;
11539;SDS011;5826;54.756;9.192;2023-02-15T10:26:03;27.77;;;16.70;;
11539;SDS011;5826;54.756;9.192;2023-02-15T10:28:53;20.00;;;13.90;;
11539;SDS011;5826;54.756;9.192;2023-02-15T10:34:17;17.40;;;11.40;;
11539;SDS011;5826;54.756;9.192;2023-02-15T10:36:53;15.63;;;10.73;;
11539;SDS011;5826;54.756;9.192;2023-02-15T10:39:46;16.20;;;10.87;;
11539;SDS011;5826;54.756;9.192;2023-02-15T10:42:39;21.43;;;9.70;;
11539;SDS011;5826;54.756;9.192;2023-02-15T10:45:12;24.00;;;11.30;;
11539;SDS011;5826;54.756;9.192;2023-02-15T11:01:30;23.40;;;12.10;;
11539;SDS011;5826;54.756;9.192;2023-02-15T11:06:39;27.40;;;17.30;;
11539;SDS011;5826;54.756;9.192;2023-02-15T11:09:13;29.73;;;16.87;;
11539;SDS011;5826;54.756;9.192;2023-02-15T11:11:43;20.70;;;15.20;;
11539;SDS011;5826;54.756;9.192;2023-02-15T11:14:21;24.57;;;15.70;;
11539;SDS011;5826;54.756;9.192;2023-02-15T11:16:57;16.47;;;12.37;;
11539;SDS011;5826;54.756;9.192;2023-02-15T11:19:41;17.50;;;12.17;;
11539;SDS011;5826;54.756;9.192;2023-02-15T11:22:33;17.63;;;11.37;;
11539;SDS011;5826;54.756;9.192;2023-02-15T11:24:59;14.23;;;11.17;;
11539;SDS011;5826;54.756;9.192;2023-02-15T11:27:27;16.10;;;12.17;;
11539;SDS011;5826;54.756;9.192;2023-02-15T11:30:02;13.33;;;10.47;;
11539;SDS011;5826;54.756;9.192;2023-02-15T11:32:37;16.30;;;11.67;;
11539;SDS011;5826;54.756;9.192;2023-02-15T11:40:38;22.77;;;12.20;;
11539;SDS011;5826;54.756;9.192;2023-02-15T11:43:13;14.80;;;11.50;;
11539;SDS011;5826;54.756;9.192;2023-02-15T11:45:46;15.23;;;12.00;;
11539;SDS011;5826;54.756;9.192;2023-02-15T11:48:12;16.97;;;12.10;;
11539;SDS011;5826;54.756;9.192;2023-02-15T11:50:39;13.90;;;11.50;;
11539;SDS011;5826;54.756;9.192;2023-02-15T11:53:09;13.43;;;11.47;;
11539;SDS011;5826;54.756;9.192;2023-02-15T11:55:42;19.37;;;14.13;;
11539;SDS011;5826;54.756;9.192;2023-02-15T11:58:13;15.60;;;12.10;;
11539;SDS011;5826;54.756;9.192;2023-02-15T12:01:01;18.63;;;14.50;;
11539;SDS011;5826;54.756;9.192;2023-02-15T12:03:41;15.30;;;12.50;;
11539;SDS011;5826;54.756;9.192;2023-02-15T12:06:14;18.87;;;13.60;;
11539;SDS011;5826;54.756;9.192;2023-02-15T12:08:42;16.90;;;13.17;;
11539;SDS011;5826;54.756;9.192;2023-02-15T12:11:15;17.93;;;13.03;;
11539;SDS011;5826;54.756;9.192;2023-02-15T12:13:58;16.77;;;12.40;;
11539;SDS011;5826;54.756;9.192;2023-02-15T12:16:26;14.00;;;12.00;;
11539;SDS011;5826;54.756;9.192;2023-02-15T12:18:55;11.63;;;10.30;;
11539;SDS011;5826;54.756;9.192;2023-02-15T12:21:29;35.37;;;13.33;;
11539;SDS011;5826;54.756;9.192;2023-02-15T12:24:09;13.03;;;10.97;;
11539;SDS011;5826;54.756;9.192;2023-02-15T12:26:44;14.37;;;11.17;;
11539;SDS011;5826;54.756;9.192;2023-02-15T12:29:20;14.13;;;11.20;;
11539;SDS011;5826;54.756;9.192;2023-02-15T12:31:51;13.37;;;10.30;;
11539;SDS011;5826;54.756;9.192;2023-02-15T12:34:21;44.37;;;16.43;;
11539;SDS011;5826;54.756;9.192;2023-02-15T12:36:51;13.83;;;11.93;;
11539;SDS011;5826;54.756;9.192;2023-02-15T12:39:24;12.27;;;10.73;;
11539;SDS011;5826;54.756;9.192;2023-02-15T12:44:21;14.13;;;12.27;;
11539;SDS011;5826;54.756;9.192;2023-02-15T12:46:59;19.67;;;13.63;;
11539;SDS011;5826;54.756;9.192;2023-02-15T12:49:42;28.13;;;15.00;;
11539;SDS011;5826;54.756;9.192;2023-02-15T12:54:44;13.30;;;11.90;;
11539;SDS011;5826;54.756;9.192;2023-02-15T12:57:33;15.10;;;11.63;;
11539;SDS011;5826;54.756;9.192;2023-02-15T13:00:44;18.53;;;12.87;;
11539;SDS011;5826;54.756;9.192;2023-02-15T13:02:52;17.10;;;13.93;;
11539;SDS011;5826;54.756;9.192;2023-02-15T13:05:29;16.00;;;12.63;;
11539;SDS011;5826;54.756;9.192;2023-02-15T13:07:56;18.20;;;13.70;;
11539;SDS011;5826;54.756;9.192;2023-02-15T13:10:29;14.03;;;11.67;;
11539;SDS011;5826;54.756;9.192;2023-02-15T13:12:58;17.30;;;13.77;;
11539;SDS011;5826;54.756;9.192;2023-02-15T13:15:27;17.20;;;13.73;;
11539;SDS011;5826;54.756;9.192;2023-02-15T13:18:02;15.07;;;12.47;;
11539;SDS011;5826;54.756;9.192;2023-02-15T13:20:30;20.40;;;15.17;;
11539;SDS011;5826;54.756;9.192;2023-02-15T13:23:00;15.60;;;12.70;;
11539;SDS011;5826;54.756;9.192;2023-02-15T13:25:31;27.67;;;15.43;;
11539;SDS011;5826;54.756;9.192;2023-02-15T13:28:04;20.50;;;15.17;;
11539;SDS011;5826;54.756;9.192;2023-02-15T13:30:42;18.10;;;14.63;;
11539;SDS011;5826;54.756;9.192;2023-02-15T13:36:06;23.37;;;17.27;;
11539;SDS011;5826;54.756;9.192;2023-02-15T13:38:46;18.57;;;14.43;;
11539;SDS011;5826;54.756;9.192;2023-02-15T13:41:24;17.83;;;14.10;;
11539;SDS011;5826;54.756;9.192;2023-02-15T13:43:59;18.57;;;15.33;;
11539;SDS011;5826;54.756;9.192;2023-02-15T13:52:28;18.63;;;14.97;;
11539;SDS011;5826;54.756;9.192;2023-02-15T13:55:08;19.27;;;14.10;;
11539;SDS011;5826;54.756;9.192;2023-02-15T13:58:46;19.37;;;14.77;;
11539;SDS011;5826;54.756;9.192;2023-02-15T14:09:34;22.60;;;17.00;;
11539;SDS011;5826;54.756;9.192;2023-02-15T14:12:17;22.13;;;16.57;;
11539;SDS011;5826;54.756;9.192;2023-02-15T14:14:59;20.43;;;16.27;;
11539;SDS011;5826;54.756;9.192;2023-02-15T14:20:36;44.97;;;25.60;;
11539;SDS011;5826;54.756;9.192;2023-02-15T14:25:55;24.87;;;19.00;;
11539;SDS011;5826;54.756;9.192;2023-02-15T14:31:06;34.23;;;24.00;;
11539;SDS011;5826;54.756;9.192;2023-02-15T14:33:39;30.23;;;22.37;;
11539;SDS011;5826;54.756;9.192;2023-02-15T14:36:12;29.63;;;21.70;;
11539;SDS011;5826;54.756;9.192;2023-02-15T14:38:48;25.90;;;19.97;;
11539;SDS011;5826;54.756;9.192;2023-02-15T14:41:35;24.50;;;18.63;;
11539;SDS011;5826;54.756;9.192;2023-02-15T14:44:51;27.87;;;20.63;;
11539;SDS011;5826;54.756;9.192;2023-02-15T14:47:02;36.73;;;24.30;;
11539;SDS011;5826;54.756;9.192;2023-02-15T14:49:38;30.47;;;22.60;;
11539;SDS011;5826;54.756;9.192;2023-02-15T14:52:05;37.90;;;25.93;;
11539;SDS011;5826;54.756;9.192;2023-02-15T15:02:18;32.50;;;21.17;;
11539;SDS011;5826;54.756;9.192;2023-02-15T15:07:25;26.93;;;19.90;;
11539;SDS011;5826;54.756;9.192;2023-02-15T15:12:41;24.23;;;18.93;;
11539;SDS011;5826;54.756;9.192;2023-02-15T15:18:03;27.03;;;19.93;;
11539;SDS011;5826;54.756;9.192;2023-02-15T15:39:46;26.77;;;19.57;;
11539;SDS011;5826;54.756;9.192;2023-02-15T15:42:48;27.03;;;19.33;;
11539;SDS011;5826;54.756;9.192;2023-02-15T15:50:53;36.27;;;24.50;;
11539;SDS011;5826;54.756;9.192;2023-02-15T15:53:25;34.93;;;25.43;;
11539;SDS011;5826;54.756;9.192;2023-02-15T15:55:55;31.20;;;22.83;;
11539;SDS011;5826;54.756;9.192;2023-02-15T15:58:25;41.23;;;28.40;;
11539;SDS011;5826;54.756;9.192;2023-02-15T16:00:52;32.97;;;23.13;;
11539;SDS011;5826;54.756;9.192;2023-02-15T16:03:24;43.47;;;28.70;;
11539;SDS011;5826;54.756;9.192;2023-02-15T16:05:51;36.20;;;24.63;;
11539;SDS011;5826;54.756;9.192;2023-02-15T16:08:37;32.50;;;23.67;;
11539;SDS011;5826;54.756;9.192;2023-02-15T16:11:19;40.90;;;26.33;;
11539;SDS011;5826;54.756;9.192;2023-02-15T16:13:48;29.57;;;22.53;;
11539;SDS011;5826;54.756;9.192;2023-02-15T16:16:19;33.17;;;25.17;;
11539;SDS011;5826;54.756;9.192;2023-02-15T16:18:46;40.00;;;26.47;;
11539;SDS011;5826;54.756;9.192;2023-02-15T16:21:23;30.20;;;22.67;;
11539;SDS011;5826;54.756;9.192;2023-02-15T16:24:06;32.70;;;23.17;;
11539;SDS011;5826;54.756;9.192;2023-02-15T16:29:23;32.43;;;23.93;;
11539;SDS011;5826;54.756;9.192;2023-02-15T16:32:02;46.20;;;29.37;;
11539;SDS011;5826;54.756;9.192;2023-02-15T16:34:50;34.50;;;24.23;;
11539;SDS011;5826;54.756;9.192;2023-02-15T16:37:20;34.20;;;24.70;;
11539;SDS011;5826;54.756;9.192;2023-02-15T16:39:49;39.07;;;27.70;;
11539;SDS011;5826;54.756;9.192;2023-02-15T16:42:15;31.63;;;23.47;;
11539;SDS011;5826;54.756;9.192;2023-02-15T16:44:46;35.67;;;26.33;;
11539;SDS011;5826;54.756;9.192;2023-02-15T16:47:26;43.07;;;27.57;;
11539;SDS011;5826;54.756;9.192;2023-02-15T16:49:55;40.03;;;26.60;;
11539;SDS011;5826;54.756;9.192;2023-02-15T16:52:25;34.13;;;24.00;;
11539;SDS011;5826;54.756;9.192;2023-02-15T16:54:58;38.83;;;26.57;;
11539;SDS011;5826;54.756;9.192;2023-02-15T16:57:30;35.23;;;25.43;;
11539;SDS011;5826;54.756;9.192;2023-02-15T17:00:08;45.17;;;28.77;;
11539;SDS011;5826;54.756;9.192;2023-02-15T17:02:57;34.67;;;24.67;;
11539;SDS011;5826;54.756;9.192;2023-02-15T17:05:29;35.20;;;25.67;;
11539;SDS011;5826;54.756;9.192;2023-02-15T17:08:05;41.03;;;28.97;;
11539;SDS011;5826;54.756;9.192;2023-02-15T17:10:35;53.57;;;30.53;;
11539;SDS011;5826;54.756;9.192;2023-02-15T17:13:23;33.30;;;24.43;;
11539;SDS011;5826;54.756;9.192;2023-02-15T17:18:24;34.17;;;24.67;;
11539;SDS011;5826;54.756;9.192;2023-02-15T17:21:11;38.50;;;26.77;;
11539;SDS011;5826;54.756;9.192;2023-02-15T17:23:42;32.93;;;24.07;;
11539;SDS011;5826;54.756;9.192;2023-02-15T17:26:31;30.53;;;22.40;;
11539;SDS011;5826;54.756;9.192;2023-02-15T17:28:58;32.27;;;24.30;;
11539;SDS011;5826;54.756;9.192;2023-02-15T17:31:27;39.30;;;26.40;;
11539;SDS011;5826;54.756;9.192;2023-02-15T17:33:58;39.47;;;26.20;;